createdAt,value
2023-05-14T00:01:33.244Z,7.95
2023-05-14T00:04:00.716Z,8.45
2023-05-14T00:06:28.384Z,8.35
2023-05-14T00:08:55.450Z,8.73
2023-05-14T00:11:22.490Z,8.75
2023-05-14T00:13:50.651Z,8.65
2023-05-14T00:16:17.740Z,9.07
2023-05-14T00:18:44.820Z,8.18
2023-05-14T00:21:11.921Z,8.32
2023-05-14T00:23:39.000Z,9.13
2023-05-14T00:26:06.204Z,8.48
2023-05-14T00:28:33.272Z,8.93
2023-05-14T00:31:00.620Z,9.07
2023-05-14T00:33:27.729Z,9.15
2023-05-14T00:35:54.809Z,8.88
2023-05-14T00:38:21.809Z,8.65
2023-05-14T00:40:52.143Z,7.40
2023-05-14T00:43:22.875Z,8.05
2023-05-14T00:45:51.871Z,8.70
2023-05-14T00:48:21.023Z,7.93
2023-05-14T00:50:50.918Z,8.27
2023-05-14T00:53:19.677Z,8.15
2023-05-14T00:55:48.881Z,7.82
2023-05-14T00:58:16.164Z,8.10
2023-05-14T01:00:43.313Z,6.95
2023-05-14T01:03:10.584Z,6.68
2023-05-14T01:05:52.941Z,6.70
2023-05-14T01:08:35.610Z,7.07
2023-05-14T01:11:50.910Z,6.47
2023-05-14T01:14:23.169Z,6.70
2023-05-14T01:16:53.118Z,6.65
2023-05-14T01:19:39.706Z,7.18
2023-05-14T01:22:07.027Z,7.28
2023-05-14T01:24:34.165Z,7.32
2023-05-14T01:27:26.742Z,6.90
2023-05-14T01:30:03.789Z,7.05
2023-05-14T01:32:32.932Z,7.07
2023-05-14T01:35:01.577Z,7.28
2023-05-14T01:37:31.286Z,7.03
2023-05-14T01:39:59.141Z,7.90
2023-05-14T01:42:27.225Z,7.18
2023-05-14T01:44:54.561Z,6.53
2023-05-14T01:47:21.764Z,6.50
2023-05-14T01:49:48.771Z,6.75
2023-05-14T01:52:15.854Z,7.22
2023-05-14T01:54:42.947Z,7.20
2023-05-14T01:57:10.051Z,8.13
2023-05-14T01:59:37.104Z,7.88
2023-05-14T02:02:04.236Z,7.50
2023-05-14T02:04:31.258Z,8.10
2023-05-14T02:06:58.317Z,8.13
2023-05-14T02:09:25.444Z,7.63
2023-05-14T02:11:52.510Z,7.78
2023-05-14T02:14:19.520Z,8.77
2023-05-14T02:16:46.621Z,7.93
2023-05-14T02:19:13.795Z,8.80
2023-05-14T02:21:40.896Z,8.20
2023-05-14T02:24:08.133Z,8.80
2023-05-14T02:26:35.589Z,7.97
2023-05-14T02:29:02.612Z,8.32
2023-05-14T02:31:29.762Z,8.13
2023-05-14T02:33:57.078Z,7.95
2023-05-14T02:36:24.068Z,8.77
2023-05-14T02:38:51.225Z,9.20
2023-05-14T02:41:18.259Z,10.25
2023-05-14T02:43:45.443Z,10.05
2023-05-14T02:46:12.498Z,11.10
2023-05-14T02:48:39.581Z,8.85
2023-05-14T02:51:06.715Z,9.77
2023-05-14T02:53:33.896Z,9.48
2023-05-14T02:56:01.039Z,8.27
2023-05-14T02:58:28.470Z,9.65
2023-05-14T03:00:55.918Z,9.05
2023-05-14T03:03:23.613Z,9.80
2023-05-14T03:05:51.040Z,9.57
2023-05-14T03:08:18.169Z,9.07
2023-05-14T03:10:45.156Z,8.98
2023-05-14T03:13:12.253Z,8.68
2023-05-14T03:15:39.268Z,8.20
2023-05-14T03:18:06.922Z,7.57
2023-05-14T03:20:33.992Z,7.70
2023-05-14T03:23:01.172Z,7.20
2023-05-14T03:25:28.257Z,7.65
2023-05-14T03:27:55.416Z,8.07
2023-05-14T03:30:22.594Z,7.85
2023-05-14T03:32:50.905Z,7.03
2023-05-14T03:35:18.216Z,7.82
2023-05-14T03:37:45.370Z,7.13
2023-05-14T03:40:12.803Z,6.95
2023-05-14T03:42:39.831Z,8.02
2023-05-14T03:45:07.634Z,8.00
2023-05-14T03:47:34.731Z,8.25
2023-05-14T03:50:01.853Z,7.75
2023-05-14T03:52:28.943Z,8.25
2023-05-14T03:54:55.990Z,7.43
2023-05-14T03:57:22.973Z,8.48
2023-05-14T03:59:50.029Z,7.28
2023-05-14T04:02:17.154Z,9.27
2023-05-14T04:04:44.247Z,9.18
2023-05-14T04:07:11.357Z,8.15
2023-05-14T04:09:38.553Z,8.35
2023-05-14T04:12:06.231Z,8.57
2023-05-14T04:14:33.263Z,8.10
2023-05-14T04:17:00.657Z,8.73
2023-05-14T04:19:27.704Z,7.65
2023-05-14T04:21:54.748Z,7.60
2023-05-14T04:24:21.849Z,8.13
2023-05-14T04:26:48.842Z,7.93
2023-05-14T04:29:15.912Z,8.02
2023-05-14T04:31:43.401Z,6.55
2023-05-14T04:34:10.530Z,6.90
2023-05-14T04:36:37.598Z,7.30
2023-05-14T04:39:04.667Z,5.97
2023-05-14T04:41:31.701Z,8.77
2023-05-14T04:44:00.750Z,8.93
2023-05-14T04:46:28.355Z,8.90
2023-05-14T04:48:56.625Z,7.60
2023-05-14T04:51:23.961Z,6.57
2023-05-14T04:53:51.031Z,6.22
2023-05-14T04:56:18.119Z,7.18
2023-05-14T04:58:45.149Z,5.97
2023-05-14T05:01:12.435Z,6.65
2023-05-14T05:03:39.571Z,9.95
2023-05-14T05:06:07.066Z,12.20
2023-05-14T05:08:34.193Z,8.55
2023-05-14T05:11:01.201Z,8.88
2023-05-14T05:13:28.356Z,7.28
2023-05-14T05:15:55.482Z,8.48
2023-05-14T05:18:22.619Z,8.40
2023-05-14T05:20:49.758Z,7.50
2023-05-14T05:23:16.869Z,6.78
2023-05-14T05:25:43.963Z,8.80
2023-05-14T05:28:11.031Z,6.90
2023-05-14T05:30:38.087Z,6.82
2023-05-14T05:33:05.229Z,6.47
2023-05-14T05:35:32.359Z,6.63
2023-05-14T05:38:01.369Z,6.72
2023-05-14T05:40:29.002Z,6.55
2023-05-14T05:42:56.175Z,6.32
2023-05-14T05:45:23.316Z,5.93
2023-05-14T05:47:50.536Z,6.63
2023-05-14T05:50:18.960Z,6.45
2023-05-14T05:52:47.193Z,6.35
2023-05-14T05:55:14.238Z,6.15
2023-05-14T05:57:41.223Z,6.38
2023-05-14T06:00:15.311Z,6.55
2023-05-14T06:02:43.071Z,6.53
2023-05-14T06:05:11.135Z,6.15
2023-05-14T06:07:38.973Z,6.45
2023-05-14T06:10:06.973Z,6.57
2023-05-14T06:12:34.019Z,6.53
2023-05-14T06:15:01.187Z,7.05
2023-05-14T06:17:28.270Z,6.82
2023-05-14T06:19:55.358Z,6.45
2023-05-14T06:22:22.470Z,6.55
2023-05-14T06:24:49.552Z,6.32
2023-05-14T06:27:16.621Z,6.35
2023-05-14T06:29:43.624Z,5.68
2023-05-14T06:32:10.766Z,5.38
2023-05-14T06:34:37.851Z,6.15
2023-05-14T06:37:05.707Z,6.70
2023-05-14T06:39:32.903Z,5.70
2023-05-14T06:41:59.962Z,5.30
2023-05-14T06:44:27.329Z,5.57
2023-05-14T06:46:54.470Z,5.82
2023-05-14T06:49:21.618Z,5.78
2023-05-14T06:51:48.625Z,5.30
2023-05-14T06:54:15.742Z,6.15
2023-05-14T06:56:43.184Z,5.55
2023-05-14T06:59:10.301Z,6.07
2023-05-14T07:01:37.497Z,5.72
2023-05-14T07:04:04.812Z,5.25
2023-05-14T07:06:32.729Z,5.38
2023-05-14T07:09:01.389Z,5.35
2023-05-14T07:11:28.430Z,5.38
2023-05-14T07:13:55.442Z,5.22
2023-05-14T07:16:22.629Z,5.10
2023-05-14T07:18:49.758Z,5.35
2023-05-14T07:21:16.832Z,5.07
2023-05-14T07:23:43.934Z,5.57
2023-05-14T07:26:10.992Z,5.40
2023-05-14T07:28:38.102Z,5.13
2023-05-14T07:31:09.010Z,5.25
2023-05-14T07:33:36.840Z,5.20
2023-05-14T07:36:04.127Z,5.30
2023-05-14T07:38:31.661Z,5.15
2023-05-14T07:40:58.734Z,5.60
2023-05-14T07:43:26.051Z,5.72
2023-05-14T07:45:53.087Z,5.95
2023-05-14T07:48:20.330Z,5.53
2023-05-14T07:50:49.049Z,5.70
2023-05-14T07:53:16.209Z,6.40
2023-05-14T07:55:45.482Z,5.30
2023-05-14T07:58:12.540Z,5.10
2023-05-14T08:00:39.598Z,5.65
2023-05-14T08:03:06.866Z,6.75
2023-05-14T08:05:34.097Z,5.95
2023-05-14T08:08:01.637Z,6.40
2023-05-14T08:10:29.152Z,5.47
2023-05-14T08:12:56.353Z,5.65
2023-05-14T08:15:25.191Z,5.65
2023-05-14T08:17:54.311Z,5.07
2023-05-14T08:20:21.498Z,5.32
2023-05-14T08:22:48.656Z,5.07
2023-05-14T08:25:15.802Z,5.32
2023-05-14T08:27:42.874Z,5.03
2023-05-14T08:30:10.304Z,5.05
2023-05-14T08:32:38.759Z,5.07
2023-05-14T08:35:06.971Z,5.35
2023-05-14T08:37:34.086Z,5.60
2023-05-14T08:40:01.148Z,5.30
2023-05-14T08:42:29.321Z,5.50
2023-05-14T08:45:04.120Z,5.22
2023-05-14T08:47:31.775Z,5.47
2023-05-14T08:50:05.858Z,5.60
2023-05-14T08:52:33.656Z,5.55
2023-05-14T08:55:08.040Z,5.50
2023-05-14T08:57:36.284Z,5.30
2023-05-14T09:00:23.498Z,5.65
2023-05-14T09:02:51.638Z,7.00
2023-05-14T09:05:20.184Z,6.00
2023-05-14T09:07:47.399Z,5.32
2023-05-14T09:10:16.245Z,5.43
2023-05-14T09:12:43.329Z,5.95
2023-05-14T09:15:10.717Z,5.07
2023-05-14T09:17:39.516Z,5.53
2023-05-14T09:20:07.660Z,5.22
2023-05-14T09:22:35.832Z,5.03
2023-05-14T09:25:06.285Z,4.63
2023-05-14T09:27:34.235Z,6.60
2023-05-14T09:30:10.073Z,4.95
2023-05-14T09:32:44.160Z,5.10
2023-05-14T09:35:17.795Z,4.97
2023-05-14T09:37:50.070Z,4.93
2023-05-14T09:40:19.132Z,4.97
2023-05-14T09:42:46.948Z,5.10
2023-05-14T09:45:14.166Z,4.38
2023-05-14T09:47:41.475Z,4.57
2023-05-14T09:50:09.490Z,4.18
2023-05-14T09:52:37.375Z,4.40
2023-05-14T09:55:04.758Z,4.25
2023-05-14T09:57:31.933Z,4.00
2023-05-14T09:59:58.927Z,4.78
2023-05-14T10:02:37.730Z,4.30
2023-05-14T10:05:07.035Z,4.38
2023-05-14T10:07:44.836Z,4.10
2023-05-14T10:10:26.587Z,4.28
2023-05-14T10:12:58.631Z,4.43
2023-05-14T10:15:52.352Z,4.00
2023-05-14T10:18:24.361Z,4.73
2023-05-14T10:21:04.843Z,3.95
2023-05-14T10:23:32.068Z,3.75
2023-05-14T10:25:59.898Z,3.90
2023-05-14T10:28:27.817Z,3.75
2023-05-14T10:30:55.018Z,4.10
2023-05-14T10:33:22.104Z,3.95
2023-05-14T10:35:55.206Z,3.72
2023-05-14T10:38:36.198Z,3.87
2023-05-14T10:41:10.398Z,3.92
2023-05-14T10:43:38.652Z,4.40
2023-05-14T10:46:06.487Z,4.20
2023-05-14T10:48:34.523Z,4.47
2023-05-14T10:51:02.836Z,4.38
2023-05-14T10:53:38.156Z,4.13
2023-05-14T10:56:08.429Z,4.80
2023-05-14T10:58:41.848Z,4.65
2023-05-14T11:01:11.102Z,4.60
2023-05-14T11:03:46.512Z,5.63
2023-05-14T11:06:15.864Z,4.80
2023-05-14T11:08:44.129Z,4.80
2023-05-14T11:11:11.354Z,4.30
2023-05-14T11:13:38.866Z,4.80
2023-05-14T11:18:41.050Z,4.78
2023-05-14T11:21:08.112Z,4.95
2023-05-14T11:23:35.316Z,5.07
2023-05-14T11:26:02.570Z,4.75
2023-05-14T11:28:30.179Z,4.93
2023-05-14T11:30:57.315Z,4.65
2023-05-14T11:33:24.714Z,5.25
2023-05-14T11:35:52.116Z,5.22
2023-05-14T11:38:21.398Z,5.20
2023-05-14T11:40:59.012Z,5.60
2023-05-14T11:43:29.254Z,6.15
2023-05-14T11:45:56.930Z,6.53
2023-05-14T11:48:24.585Z,5.97
2023-05-14T11:50:54.519Z,5.93
2023-05-14T11:53:30.026Z,5.15
2023-05-14T11:56:00.179Z,5.93
2023-05-14T11:58:27.219Z,5.28
2023-05-14T12:00:56.086Z,6.55
2023-05-14T12:03:26.526Z,6.55
2023-05-14T12:06:01.344Z,6.80
2023-05-14T12:08:30.816Z,6.30
2023-05-14T12:11:01.738Z,6.25
2023-05-14T12:13:30.793Z,5.88
2023-05-14T12:16:00.488Z,5.90
2023-05-14T12:18:29.113Z,6.10
2023-05-14T12:21:01.940Z,5.40
2023-05-14T12:23:30.978Z,5.70
2023-05-14T12:26:09.782Z,5.30
2023-05-14T12:28:47.995Z,5.50
2023-05-14T12:31:16.283Z,5.18
2023-05-14T12:33:43.363Z,5.78
2023-05-14T12:36:21.319Z,5.35
2023-05-14T12:38:50.301Z,4.90
2023-05-14T12:41:18.479Z,5.15
2023-05-14T12:43:48.390Z,5.57
2023-05-14T12:46:16.515Z,5.40
2023-05-14T12:48:43.582Z,4.55
2023-05-14T12:51:10.691Z,4.40
2023-05-14T12:53:37.811Z,3.70
2023-05-14T12:56:05.092Z,4.07
2023-05-14T12:58:32.356Z,4.38
2023-05-14T13:00:59.768Z,3.72
2023-05-14T13:03:26.854Z,5.35
2023-05-14T13:05:54.761Z,5.63
2023-05-14T13:08:25.136Z,5.43
2023-05-14T13:10:53.398Z,5.40
2023-05-14T13:13:20.643Z,5.28
2023-05-14T13:15:47.965Z,4.90
2023-05-14T13:18:15.688Z,5.45
2023-05-14T13:20:43.403Z,5.18
2023-05-14T13:23:10.786Z,5.00
2023-05-14T13:25:37.819Z,4.65
2023-05-14T13:28:05.156Z,4.57
2023-05-14T13:30:32.487Z,4.03
2023-05-14T13:33:00.329Z,4.15
2023-05-14T13:35:27.430Z,4.20
2023-05-14T13:37:54.446Z,4.43
2023-05-14T13:40:21.644Z,4.05
2023-05-14T13:42:48.718Z,4.60
2023-05-14T13:45:17.317Z,4.50
2023-05-14T13:47:44.481Z,4.70
2023-05-14T13:50:11.661Z,4.68
2023-05-14T13:52:39.242Z,4.60
2023-05-14T13:55:07.029Z,4.50
2023-05-14T13:57:34.113Z,4.13
2023-05-14T14:00:01.629Z,4.40
2023-05-14T14:02:28.654Z,4.10
2023-05-14T14:04:55.756Z,4.00
2023-05-14T14:07:22.900Z,3.90
2023-05-14T14:09:49.888Z,3.72
2023-05-14T14:12:17.084Z,3.65
2023-05-14T14:14:44.148Z,3.33
2023-05-14T14:17:11.142Z,3.08
2023-05-14T14:19:39.487Z,3.10
2023-05-14T14:22:06.610Z,2.90
2023-05-14T14:24:33.750Z,3.05
2023-05-14T14:27:02.465Z,3.08
2023-05-14T14:29:31.301Z,3.20
2023-05-14T14:31:58.468Z,2.90
2023-05-14T14:34:25.689Z,3.33
2023-05-14T14:36:52.759Z,2.72
2023-05-14T14:39:19.862Z,2.83
2023-05-14T14:41:47.822Z,2.70
2023-05-14T14:44:14.925Z,3.10
2023-05-14T14:46:43.056Z,2.90
2023-05-14T14:49:10.176Z,3.20
2023-05-14T14:51:37.267Z,3.05
2023-05-14T14:54:05.880Z,2.70
2023-05-14T14:56:33.698Z,3.30
2023-05-14T14:59:01.736Z,2.90
2023-05-14T15:01:29.174Z,3.03
2023-05-14T15:03:56.356Z,3.00
2023-05-14T15:06:23.464Z,2.90
2023-05-14T15:08:50.595Z,2.90
2023-05-14T15:11:17.669Z,2.67
2023-05-14T15:13:44.857Z,2.35
2023-05-14T15:16:12.714Z,2.78
2023-05-14T15:18:39.763Z,2.70
2023-05-14T15:21:06.893Z,2.50
2023-05-14T15:23:34.096Z,2.40
2023-05-14T15:26:01.222Z,2.30
2023-05-14T15:28:28.285Z,2.60
2023-05-14T15:30:55.625Z,2.90
2023-05-14T15:33:22.739Z,2.42
2023-05-14T15:35:49.742Z,2.25
2023-05-14T15:38:16.813Z,2.17
2023-05-14T15:40:43.882Z,2.40
2023-05-14T15:43:11.018Z,2.38
2023-05-14T15:45:38.070Z,2.33
2023-05-14T15:48:05.336Z,2.17
2023-05-14T15:50:32.494Z,2.10
2023-05-14T15:53:00.830Z,2.20
2023-05-14T15:55:28.017Z,2.08
2023-05-14T15:57:55.024Z,2.35
2023-05-14T16:00:22.455Z,2.00
2023-05-14T16:02:50.021Z,2.10
2023-05-14T16:05:17.433Z,1.90
2023-05-14T16:07:44.548Z,2.10
2023-05-14T16:10:11.661Z,2.05
2023-05-14T16:12:38.694Z,1.90
2023-05-14T16:15:07.923Z,1.80
2023-05-14T16:17:35.194Z,1.88
2023-05-14T16:20:04.870Z,1.98
2023-05-14T16:22:35.365Z,1.70
2023-05-14T16:25:03.576Z,1.70
2023-05-14T16:27:31.741Z,1.60
2023-05-14T16:29:58.800Z,1.83
2023-05-14T16:32:26.052Z,2.03
2023-05-14T16:34:53.233Z,1.90
2023-05-14T16:37:20.781Z,1.85
2023-05-14T16:39:48.395Z,1.77
2023-05-14T16:42:16.104Z,1.83
2023-05-14T16:44:43.135Z,2.00
2023-05-14T16:47:10.571Z,1.95
2023-05-14T16:49:37.863Z,1.77
2023-05-14T16:52:06.195Z,1.80
2023-05-14T16:54:33.307Z,1.70
2023-05-14T16:57:00.401Z,2.30
2023-05-14T16:59:27.478Z,1.90
2023-05-14T17:01:54.538Z,1.77
2023-05-14T17:04:21.714Z,1.80
2023-05-14T17:06:48.802Z,1.80
2023-05-14T17:09:17.101Z,1.88
2023-05-14T17:11:44.189Z,1.60
2023-05-14T17:14:11.297Z,2.08
2023-05-14T17:16:40.629Z,1.88
2023-05-14T17:19:07.782Z,1.90
2023-05-14T17:21:37.251Z,1.58
2023-05-14T17:24:04.538Z,1.90
2023-05-14T17:26:32.125Z,1.90
2023-05-14T17:28:59.147Z,1.65
2023-05-14T17:31:26.291Z,1.60
2023-05-14T17:33:53.445Z,1.90
2023-05-14T17:36:20.786Z,1.70
2023-05-14T17:38:48.023Z,1.80
2023-05-14T17:41:15.023Z,1.55
2023-05-14T17:43:42.118Z,1.98
2023-05-14T17:46:09.193Z,1.88
2023-05-14T17:48:36.272Z,1.90
2023-05-14T17:51:03.316Z,1.83
2023-05-14T17:53:30.432Z,1.70
2023-05-14T17:55:57.625Z,2.00
2023-05-14T17:58:25.205Z,1.90
2023-05-14T18:00:52.349Z,1.88
2023-05-14T18:03:20.509Z,1.80
2023-05-14T18:05:47.847Z,1.98
2023-05-14T18:08:15.239Z,1.90
2023-05-14T18:10:42.505Z,1.80
2023-05-14T18:13:09.690Z,2.10
2023-05-14T18:15:37.366Z,1.70
2023-05-14T18:18:04.836Z,1.88
2023-05-14T18:20:33.434Z,1.88
2023-05-14T18:23:01.952Z,2.03
2023-05-14T18:25:29.363Z,1.90
2023-05-14T18:27:56.590Z,1.73
2023-05-14T18:30:23.626Z,1.80
2023-05-14T18:32:50.922Z,1.92
2023-05-14T18:35:18.115Z,2.00
2023-05-14T18:37:45.172Z,1.70
2023-05-14T18:40:16.318Z,1.90
2023-05-14T18:42:45.564Z,1.83
2023-05-14T18:45:12.681Z,2.00
2023-05-14T18:47:40.127Z,2.00
2023-05-14T18:50:08.450Z,2.38
2023-05-14T18:52:35.843Z,1.80
2023-05-14T18:55:03.189Z,2.00
2023-05-14T18:57:32.260Z,2.20
2023-05-14T19:00:01.420Z,2.58
2023-05-14T19:02:28.973Z,2.13
2023-05-14T19:04:56.361Z,2.10
2023-05-14T19:07:23.600Z,1.80
2023-05-14T19:09:50.981Z,2.60
2023-05-14T19:12:18.055Z,2.40
2023-05-14T19:14:45.081Z,2.20
2023-05-14T19:17:12.352Z,2.38
2023-05-14T19:19:39.747Z,2.28
2023-05-14T19:22:07.025Z,2.30
2023-05-14T19:24:34.145Z,2.03
2023-05-14T19:27:01.329Z,2.22
2023-05-14T19:29:28.375Z,2.22
2023-05-14T19:31:55.438Z,2.45
2023-05-14T19:34:22.530Z,2.65
2023-05-14T19:36:50.063Z,2.50
2023-05-14T19:39:17.122Z,2.08
2023-05-14T19:41:44.271Z,2.30
2023-05-14T19:44:11.338Z,2.30
2023-05-14T19:46:38.455Z,2.67
2023-05-14T19:49:05.558Z,2.45
2023-05-14T19:51:32.556Z,2.50
2023-05-14T19:53:59.638Z,2.53
2023-05-14T19:56:27.377Z,2.38
2023-05-14T19:58:54.772Z,2.50
2023-05-14T20:01:21.924Z,2.88
2023-05-14T20:03:48.990Z,2.72
2023-05-14T20:06:17.663Z,2.70
2023-05-14T20:08:47.606Z,3.10
2023-05-14T20:11:15.855Z,2.67
2023-05-14T20:13:42.912Z,2.90
2023-05-14T20:16:10.002Z,3.30
2023-05-14T20:18:37.164Z,3.08
2023-05-14T20:21:04.281Z,3.33
2023-05-14T20:23:32.459Z,2.85
2023-05-14T20:26:01.901Z,2.78
2023-05-14T20:28:29.092Z,3.03
2023-05-14T20:30:58.995Z,2.85
2023-05-14T20:33:27.277Z,2.80
2023-05-14T20:36:01.838Z,2.65
2023-05-14T20:38:30.148Z,2.78
2023-05-14T20:40:57.711Z,2.80
2023-05-14T20:43:26.541Z,2.90
2023-05-14T20:45:57.016Z,2.78
2023-05-14T20:48:24.044Z,2.92
2023-05-14T20:50:51.295Z,2.95
2023-05-14T20:53:19.307Z,2.80
2023-05-14T20:55:46.456Z,2.50
2023-05-14T20:58:13.483Z,3.30
2023-05-14T21:00:43.602Z,2.90
2023-05-14T21:03:10.871Z,3.08
2023-05-14T21:05:38.159Z,3.28
2023-05-14T21:08:05.415Z,2.90
2023-05-14T21:10:32.493Z,2.80
2023-05-14T21:12:59.491Z,3.17
2023-05-14T21:15:27.528Z,3.20
2023-05-14T21:17:54.804Z,3.30
2023-05-14T21:20:21.818Z,2.95
2023-05-14T21:22:48.878Z,3.20
2023-05-14T21:25:16.005Z,3.30
2023-05-14T21:27:43.050Z,3.08
2023-05-14T21:30:10.652Z,3.40
2023-05-14T21:32:37.763Z,3.97
2023-05-14T21:35:05.426Z,3.95
2023-05-14T21:37:32.871Z,3.38
2023-05-14T21:39:59.889Z,3.30
2023-05-14T21:42:27.002Z,2.90
2023-05-14T21:44:53.990Z,3.20
2023-05-14T21:47:21.339Z,3.25
2023-05-14T21:49:50.676Z,2.90
2023-05-14T21:52:17.698Z,3.38
2023-05-14T21:54:44.730Z,3.40
2023-05-14T21:57:11.803Z,3.30
2023-05-14T21:59:38.932Z,3.10
2023-05-14T22:02:07.671Z,3.15
2023-05-14T22:04:35.442Z,3.22
2023-05-14T22:07:02.787Z,3.38
2023-05-14T22:09:30.521Z,3.47
2023-05-14T22:11:58.562Z,3.28
2023-05-14T22:14:27.681Z,3.38
2023-05-14T22:16:54.907Z,3.15
2023-05-14T22:19:22.505Z,3.20
2023-05-14T22:21:49.666Z,3.13
2023-05-14T22:24:16.720Z,3.05
2023-05-14T22:26:44.145Z,3.40
2023-05-14T22:29:11.272Z,3.08
2023-05-14T22:31:38.334Z,3.03
2023-05-14T22:34:05.497Z,2.92
2023-05-14T22:36:32.584Z,3.30
2023-05-14T22:38:59.771Z,3.17
2023-05-14T22:41:26.938Z,3.13
2023-05-14T22:43:54.019Z,2.88
2023-05-14T22:46:21.282Z,3.03
2023-05-14T22:48:49.365Z,3.05
2023-05-14T22:51:16.830Z,3.08
2023-05-14T22:53:43.917Z,3.17
2023-05-14T22:56:11.062Z,3.40
2023-05-14T22:58:38.262Z,4.05
2023-05-14T23:01:05.421Z,3.85
2023-05-14T23:03:32.471Z,3.80
2023-05-14T23:05:59.604Z,3.53
2023-05-14T23:08:26.594Z,3.63
2023-05-14T23:10:54.046Z,3.53
2023-05-14T23:13:21.299Z,3.38
2023-05-14T23:15:48.966Z,3.15
2023-05-14T23:18:16.072Z,3.03
2023-05-14T23:20:43.406Z,3.30
2023-05-14T23:23:10.395Z,3.50
2023-05-14T23:25:37.540Z,3.30
2023-05-14T23:28:04.738Z,3.75
2023-05-14T23:30:31.795Z,3.40
2023-05-14T23:32:58.911Z,3.47
2023-05-14T23:35:26.397Z,3.60
2023-05-14T23:37:55.450Z,3.47
2023-05-14T23:40:22.558Z,3.60
2023-05-14T23:42:49.715Z,3.80
2023-05-14T23:45:16.950Z,3.00
2023-05-14T23:47:44.188Z,3.30
2023-05-14T23:50:11.473Z,3.08
2023-05-14T23:52:38.613Z,3.40
2023-05-14T23:55:06.566Z,3.40
2023-05-14T23:57:33.718Z,3.22
